Time;durP1;ratioP1;P1;durP2;ratioP2;P2;SDS_P1;SDS_P2;PMS_P1;PMS_P2;Temp;Humidity;BMP_temperature;BMP_pressure;BME280_temperature;BME280_humidity;BME280_pressure;Samples;Min_cycle;Max_cycle;Signal;HPM_P1;HPM_P2
2022/04/17 00:02:01;;;;;;;5.78;3.47;;;;;;;14.05;37.62;102906.69;5083669;28;20051;-62
2022/04/17 00:04:29;;;;;;;7.18;3.72;;;;;;;14.02;38.05;102903.34;5078807;28;20044;-61
2022/04/17 00:06:57;;;;;;;8.50;4.28;;;;;;;14.01;37.96;102908.94;5077605;28;20045;-61
2022/04/17 00:09:25;;;;;;;7.38;3.53;;;;;;;13.98;37.87;102904.75;5077128;28;20113;-60
2022/04/17 00:11:52;;;;;;;8.55;4.03;;;;;;;13.98;37.45;102903.91;5074833;28;20130;-61
2022/04/17 00:14:21;;;;;;;8.55;4.20;;;;;;;13.97;37.91;102899.53;5078480;28;20040;-61
2022/04/17 00:16:50;;;;;;;6.93;4.22;;;;;;;13.96;37.67;102905.97;5078656;28;20067;-61
2022/04/17 00:19:17;;;;;;;6.20;3.70;;;;;;;13.93;37.98;102898.25;5086729;28;20098;-61
2022/04/17 00:21:45;;;;;;;7.90;4.20;;;;;;;13.93;37.55;102907.19;5077957;28;20490;-61
2022/04/17 00:24:13;;;;;;;7.45;3.70;;;;;;;13.91;37.94;102903.03;5145192;27;20078;-62
2022/04/17 00:26:41;;;;;;;6.53;4.32;;;;;;;13.89;37.50;102902.38;5149276;27;20047;-60
2022/04/17 00:29:09;;;;;;;5.53;3.50;;;;;;;13.88;37.82;102903.41;5140634;27;20285;-62
2022/04/17 00:31:36;;;;;;;7.55;4.13;;;;;;;13.85;37.51;102901.13;5153350;27;20047;-61
2022/04/17 00:34:05;;;;;;;8.75;4.63;;;;;;;13.84;37.40;102892.19;5156297;27;20084;-62
2022/04/17 00:36:33;;;;;;;7.20;3.72;;;;;;;13.82;37.42;102893.41;5149551;27;20051;-61
2022/04/17 00:39:01;;;;;;;6.45;3.45;;;;;;;13.80;37.46;102904.41;5142833;27;20181;-62
2022/04/17 00:41:28;;;;;;;6.88;4.00;;;;;;;13.79;37.01;102902.72;5140673;27;20043;-61
2022/04/17 00:43:56;;;;;;;4.97;3.33;;;;;;;13.76;37.29;102900.41;5141209;27;20115;-62
2022/04/17 00:46:24;;;;;;;7.50;3.78;;;;;;;13.73;37.42;102894.56;5142212;27;20495;-62
2022/04/17 00:48:52;;;;;;;6.45;3.15;;;;;;;13.73;37.31;102894.56;5143177;27;20039;-62
2022/04/17 00:51:21;;;;;;;4.75;3.30;;;;;;;13.72;37.07;102895.59;5144276;27;20078;-62
2022/04/17 00:53:49;;;;;;;7.97;4.00;;;;;;;13.69;37.19;102894.09;5143115;27;20058;-62
2022/04/17 00:56:17;;;;;;;6.18;3.63;;;;;;;13.67;37.15;102899.69;5141822;27;20075;-62
2022/04/17 00:58:45;;;;;;;5.90;3.30;;;;;;;13.66;37.30;102897.19;5131385;27;20042;-62
2022/04/17 01:01:13;;;;;;;6.53;3.47;;;;;;;13.63;37.46;102901.13;5139222;28;20082;-61
2022/04/17 01:03:41;;;;;;;5.07;3.17;;;;;;;13.61;37.15;102888.81;5137492;27;20560;-61
2022/04/17 01:06:09;;;;;;;5.03;3.25;;;;;;;13.59;37.20;102893.59;5143018;27;21278;-61
2022/04/17 01:08:41;;;;;;;9.20;3.08;;;;;;;13.58;37.00;102891.91;5153530;27;20443;-61
2022/04/17 01:11:09;;;;;;;5.57;3.22;;;;;;;13.55;37.41;102897.69;5139477;27;20100;-61
2022/04/17 01:13:39;;;;;;;6.03;3.10;;;;;;;13.53;37.03;102889.78;5143015;27;20404;-61
2022/04/17 01:16:08;;;;;;;5.05;3.20;;;;;;;13.51;37.21;102893.69;5148808;27;20068;-61
2022/04/17 01:18:55;;;;;;;6.07;2.80;;;;;;;13.48;37.13;102891.38;5138880;28;20058;-61
2022/04/17 01:21:25;;;;;;;6.25;3.13;;;;;;;13.45;36.87;102892.59;5148381;27;20043;-61
2022/04/17 01:26:59;;;;;;;7.90;3.88;;;;;;;13.42;37.25;102887.56;5142884;27;20144;-61
2022/04/17 01:29:30;;;;;;;5.53;2.80;;;;;;;13.41;36.83;102891.31;5139417;27;20054;-61
2022/04/17 01:31:59;;;;;;;4.90;3.08;;;;;;;13.39;37.09;102889.81;5154426;27;20076;-61
2022/04/17 01:34:27;;;;;;;8.18;3.40;;;;;;;13.38;37.39;102893.56;5141958;27;20058;-60
2022/04/17 01:36:56;;;;;;;5.57;3.25;;;;;;;13.35;37.14;102892.91;5132630;27;20106;-61
2022/04/17 01:39:24;;;;;;;4.72;3.30;;;;;;;13.34;37.24;102885.84;5141216;27;20666;-61
2022/04/17 01:41:53;;;;;;;4.85;2.90;;;;;;;13.31;36.91;102883.50;5139944;27;20367;-61
2022/04/17 01:44:22;;;;;;;5.70;3.15;;;;;;;13.31;36.93;102886.22;5147864;27;20432;-61
2022/04/17 01:46:50;;;;;;;5.43;3.13;;;;;;;13.30;37.13;102881.84;5144938;27;20453;-62
2022/04/17 01:49:19;;;;;;;7.35;2.67;;;;;;;13.29;36.91;102887.44;5141401;27;20043;-62
2022/04/17 01:51:48;;;;;;;6.75;2.88;;;;;;;13.28;36.92;102891.16;5146893;27;20071;-62
2022/04/17 01:54:18;;;;;;;4.63;2.90;;;;;;;13.26;36.69;102888.66;5148637;27;20071;-62
2022/04/17 01:56:48;;;;;;;5.20;3.15;;;;;;;13.24;37.15;102887.16;5134295;27;20062;-62
2022/04/17 01:59:16;;;;;;;6.80;2.78;;;;;;;13.22;36.77;102883.81;5144151;27;20039;-62
2022/04/17 02:01:45;;;;;;;5.38;3.25;;;;;;;13.20;37.09;102886.69;5138994;27;20051;-62
2022/04/17 02:04:14;;;;;;;4.53;2.58;;;;;;;13.19;36.81;102886.88;5134681;27;20078;-62
2022/04/17 02:06:42;;;;;;;5.95;2.85;;;;;;;13.18;36.55;102885.22;5144630;27;20043;-62
2022/04/17 02:09:12;;;;;;;5.63;3.15;;;;;;;13.15;36.76;102878.31;5142505;27;20082;-61
2022/04/17 02:11:45;;;;;;;4.20;2.70;;;;;;;13.14;36.94;102879.31;5147483;27;20051;-61
2022/04/17 02:14:13;;;;;;;8.98;3.45;;;;;;;13.12;36.70;102872.44;5139913;27;20057;-61
2022/04/17 02:16:41;;;;;;;6.22;2.80;;;;;;;13.11;37.01;102874.31;5150831;27;20073;-61
2022/04/17 02:19:09;;;;;;;6.43;3.17;;;;;;;13.09;36.83;102878.22;5138607;27;20046;-60
2022/04/17 02:21:37;;;;;;;8.40;2.60;;;;;;;13.08;37.15;102876.53;5145785;27;20043;-60
2022/04/17 02:24:06;;;;;;;5.47;2.58;;;;;;;13.06;36.81;102882.13;5149693;27;20089;-61
2022/04/17 02:26:34;;;;;;;5.57;2.55;;;;;;;12.98;36.89;102866.88;5151283;27;20098;-61
2022/04/17 02:29:03;;;;;;;5.93;2.92;;;;;;;13.01;36.92;102879.16;5149046;27;20055;-61
2022/04/17 02:31:31;;;;;;;5.80;2.75;;;;;;;12.98;36.97;102880.38;5151213;27;20047;-61
2022/04/17 02:33:59;;;;;;;5.47;2.83;;;;;;;12.97;37.13;102872.47;5146281;27;20123;-61
2022/04/17 02:36:27;;;;;;;10.18;3.63;;;;;;;12.92;36.77;102872.19;5139568;27;20289;-61
2022/04/17 02:38:55;;;;;;;6.03;3.17;;;;;;;12.92;37.12;102875.72;5151330;27;20060;-61
2022/04/17 02:41:23;;;;;;;5.32;2.90;;;;;;;12.91;36.84;102875.91;5151894;27;20047;-61
2022/04/17 02:43:51;;;;;;;4.38;2.28;;;;;;;12.87;36.91;102877.31;5152813;27;20054;-61
2022/04/17 02:49:02;;;;;;;4.22;2.58;;;;;;;12.84;36.97;102867.72;5137742;27;20150;-62
2022/04/17 02:51:29;;;;;;;5.55;2.78;;;;;;;12.82;37.25;102875.19;5146788;27;20055;-61
2022/04/17 02:53:57;;;;;;;5.82;2.55;;;;;;;12.81;37.27;102875.38;5146962;27;20040;-62
2022/04/17 02:56:25;;;;;;;4.15;2.58;;;;;;;12.79;37.06;102870.16;5143020;27;20094;-61
2022/04/17 02:58:54;;;;;;;6.03;2.88;;;;;;;12.78;37.06;102878.44;5148924;27;20035;-61
2022/04/17 03:06:54;;;;;;;4.38;2.10;;;;;;;12.72;37.31;102869.22;5151385;27;20074;-62
2022/04/17 03:09:22;;;;;;;5.95;3.15;;;;;;;12.70;37.06;102864.00;5140503;27;20067;-61
2022/04/17 03:11:50;;;;;;;6.80;2.80;;;;;;;12.70;37.37;102876.66;5150956;27;20075;-61
2022/04/17 03:14:18;;;;;;;4.10;2.42;;;;;;;12.69;37.25;102873.13;5138234;27;20158;-61
2022/04/17 03:16:47;;;;;;;6.60;3.35;;;;;;;12.67;37.21;102861.69;5143402;27;20445;-61
2022/04/17 03:19:15;;;;;;;4.32;2.65;;;;;;;12.65;37.49;102869.13;5146366;27;20049;-61
2022/04/17 03:21:43;;;;;;;6.32;3.15;;;;;;;12.64;37.30;102866.63;5152828;27;20043;-61
2022/04/17 03:24:12;;;;;;;5.97;2.97;;;;;;;12.62;37.54;102863.28;5144726;27;20048;-61
2022/04/17 03:26:41;;;;;;;4.53;2.60;;;;;;;12.61;37.49;102853.50;5149624;27;20072;-61
2022/04/17 03:29:09;;;;;;;3.90;2.40;;;;;;;12.61;37.56;102850.81;5144555;27;20056;-61
2022/04/17 03:31:37;;;;;;;6.03;3.30;;;;;;;12.59;37.59;102852.84;5150082;27;20066;-61
2022/04/17 03:34:08;;;;;;;5.53;3.33;;;;;;;12.52;37.46;102841.13;5142952;27;20131;-60
2022/04/17 03:36:37;;;;;;;4.43;2.17;;;;;;;12.54;37.65;102850.72;5149393;27;20122;-61
2022/04/17 03:39:04;;;;;;;6.72;2.80;;;;;;;12.51;37.56;102851.09;5145599;27;20084;-61
2022/04/17 03:41:32;;;;;;;4.32;2.40;;;;;;;12.51;37.78;102847.56;5151660;27;20063;-61
2022/04/17 03:44:02;;;;;;;5.20;2.63;;;;;;;12.48;37.46;102850.63;5155759;27;20070;-61
2022/04/17 03:46:30;;;;;;;5.90;3.38;;;;;;;12.45;37.66;102838.34;5139704;27;20043;-61
2022/04/17 03:48:57;;;;;;;6.32;3.00;;;;;;;12.45;37.46;102841.03;5145188;27;20077;-61
2022/04/17 03:51:27;;;;;;;3.88;2.30;;;;;;;12.43;37.67;102836.84;5148609;27;20071;-60
2022/04/17 03:53:54;;;;;;;3.65;2.47;;;;;;;12.40;37.77;102838.06;5134082;27;20043;-61
2022/04/17 03:56:23;;;;;;;6.68;3.25;;;;;;;12.38;37.66;102842.81;5141872;27;20091;-61
2022/04/17 03:58:51;;;;;;;4.65;2.45;;;;;;;12.37;37.78;102844.66;5139347;27;20043;-59
2022/04/17 04:01:18;;;;;;;7.10;3.17;;;;;;;12.33;37.55;102835.25;5146327;27;20075;-60
2022/04/17 04:03:47;;;;;;;6.82;2.63;;;;;;;12.33;37.70;102843.34;5144137;27;20105;-60
2022/04/17 04:06:14;;;;;;;5.45;2.47;;;;;;;12.30;37.83;102840.19;5153952;27;20042;-60
2022/04/17 04:08:44;;;;;;;5.93;3.00;;;;;;;12.30;37.72;102834.78;5142176;27;20084;-60
2022/04/17 04:11:11;;;;;;;6.40;2.38;;;;;;;12.27;37.79;102827.91;5145424;27;20075;-60
2022/04/17 04:13:39;;;;;;;4.45;2.53;;;;;;;12.26;38.00;102828.09;5152607;27;20083;-61
2022/04/17 04:16:07;;;;;;;4.00;2.40;;;;;;;12.24;37.78;102822.91;5154770;27;20062;-60
2022/04/17 04:18:35;;;;;;;4.90;2.70;;;;;;;12.22;37.88;102821.41;5147339;27;20046;-61
2022/04/17 04:21:03;;;;;;;4.78;2.70;;;;;;;12.19;37.83;102828.00;5140842;27;20043;-61
2022/04/17 04:23:33;;;;;;;6.93;2.78;;;;;;;12.17;37.91;102824.66;5149345;27;20071;-61
2022/04/17 04:26:04;;;;;;;3.95;2.63;;;;;;;12.16;37.78;102824.84;5142794;27;20085;-60
2022/04/17 04:28:36;;;;;;;5.18;3.10;;;;;;;12.13;37.77;102819.84;5137902;27;20525;-60
2022/04/17 04:31:05;;;;;;;6.07;3.10;;;;;;;12.12;37.92;102820.88;5142861;27;20043;-59
2022/04/17 04:33:33;;;;;;;4.22;2.40;;;;;;;12.07;37.90;102810.63;5144284;27;20047;-61
2022/04/17 04:36:01;;;;;;;4.47;2.55;;;;;;;12.09;38.06;102821.22;5136266;27;20075;-61
2022/04/17 04:38:29;;;;;;;5.97;2.65;;;;;;;12.07;38.06;102816.03;5154092;27;20074;-61
2022/04/17 04:40:58;;;;;;;7.43;2.50;;;;;;;12.06;38.21;102817.03;5137971;27;20098;-60
2022/04/17 04:43:27;;;;;;;5.55;3.03;;;;;;;12.05;38.23;102816.22;5146052;27;20079;-61
2022/04/17 04:46:06;;;;;;;5.15;2.90;;;;;;;12.04;38.34;102811.84;5152817;27;20085;-61
2022/04/17 04:51:20;;;;;;;4.45;2.42;;;;;;;12.00;38.15;102799.75;5139740;27;20047;-61
2022/04/17 04:53:48;;;;;;;4.45;2.95;;;;;;;11.94;38.37;102792.41;5143202;27;20070;-61
2022/04/17 04:56:16;;;;;;;4.30;2.88;;;;;;;11.98;38.14;102804.47;5149633;27;20058;-61
2022/04/17 04:58:46;;;;;;;3.72;2.28;;;;;;;11.97;38.26;102807.38;5144195;27;20043;-61
2022/04/17 05:01:14;;;;;;;7.40;3.10;;;;;;;11.96;38.23;102806.53;5146069;27;20079;-61
2022/04/17 05:03:42;;;;;;;4.32;2.90;;;;;;;11.96;38.24;102803.00;5151840;27;20055;-60
2022/04/17 05:06:10;;;;;;;4.13;2.33;;;;;;;11.93;38.17;102801.50;5147720;27;20384;-61
2022/04/17 05:08:37;;;;;;;5.38;2.63;;;;;;;11.91;38.30;102792.75;5149042;27;20040;-60
2022/04/17 05:11:05;;;;;;;5.32;2.95;;;;;;;11.90;38.34;102801.03;5143601;27;20624;-60
2022/04/17 05:13:34;;;;;;;5.00;2.70;;;;;;;11.87;38.29;102806.78;5142808;27;20081;-61
2022/04/17 05:16:03;;;;;;;6.00;3.42;;;;;;;11.85;38.36;102804.28;5149734;27;20118;-60
2022/04/17 05:18:31;;;;;;;5.18;2.65;;;;;;;11.84;38.52;102813.38;5141794;28;20380;-61
2022/04/17 05:20:59;;;;;;;7.15;2.72;;;;;;;11.82;38.44;102810.03;5141914;27;20260;-61
2022/04/17 05:23:29;;;;;;;6.72;3.08;;;;;;;11.82;38.39;102817.28;5142165;27;20599;-61
2022/04/17 05:25:58;;;;;;;4.60;2.75;;;;;;;11.82;38.43;102819.97;5158785;27;20082;-61
2022/04/17 05:28:26;;;;;;;5.57;2.97;;;;;;;11.80;38.29;102820.16;5144519;27;20054;-61
2022/04/17 05:30:53;;;;;;;5.95;2.90;;;;;;;11.79;38.54;102817.63;4779537;27;10000257;-59
2022/04/17 05:33:23;;;;;;;5.07;2.90;;;;;;;11.78;38.61;102816.78;5144512;27;20574;-58
2022/04/17 05:35:52;;;;;;;8.75;2.70;;;;;;;11.76;38.42;102816.09;5135104;28;20055;-60
2022/04/17 05:38:20;;;;;;;5.20;2.67;;;;;;;11.77;38.88;102817.81;5143458;27;20098;-59
2022/04/17 05:40:50;;;;;;;4.43;2.83;;;;;;;11.74;38.70;102818.97;5142273;27;20075;-61
2022/04/17 05:43:18;;;;;;;5.43;3.28;;;;;;;11.75;38.72;102817.13;5139853;27;20050;-60
2022/04/17 05:45:48;;;;;;;9.82;3.20;;;;;;;11.76;38.63;102812.56;5143203;27;20074;-60
2022/04/17 05:48:16;;;;;;;6.80;2.90;;;;;;;11.73;38.77;102811.09;5139753;27;20051;-61
2022/04/17 05:50:45;;;;;;;5.32;2.90;;;;;;;11.75;38.96;102817.13;5146487;27;20166;-60
2022/04/17 05:53:14;;;;;;;5.35;2.85;;;;;;;11.76;38.91;102823.34;5130356;28;20667;-61
2022/04/17 05:55:42;;;;;;;5.65;2.78;;;;;;;11.74;38.82;102821.69;5144071;27;20504;-61
2022/04/17 05:58:10;;;;;;;6.97;2.67;;;;;;;11.75;38.98;102822.50;5139740;27;20143;-61
2022/04/17 06:00:42;;;;;;;3.95;2.60;;;;;;;11.78;38.93;102819.50;5138911;28;20059;-60
2022/04/17 06:03:10;;;;;;;5.75;2.55;;;;;;;11.80;38.96;102825.53;5137154;28;20128;-62
2022/04/17 06:05:37;;;;;;;6.78;3.38;;;;;;;11.81;39.12;102821.81;5125245;28;20050;-60
2022/04/17 06:08:07;;;;;;;3.58;2.40;;;;;;;11.85;39.22;102822.28;5136602;27;20142;-59
2022/04/17 06:10:35;;;;;;;4.05;2.50;;;;;;;11.86;39.22;102818.56;5145619;27;20103;-59
2022/04/17 06:13:02;;;;;;;4.00;2.17;;;;;;;11.88;39.35;102819.25;5146273;27;20081;-60
2022/04/17 06:15:30;;;;;;;4.53;2.53;;;;;;;11.90;39.17;102819.91;5141484;27;20054;-60
2022/04/17 06:17:59;;;;;;;5.13;2.60;;;;;;;11.94;39.18;102821.19;5142394;27;20068;-65
2022/04/17 06:20:26;;;;;;;7.00;2.88;;;;;;;11.96;39.48;102819.16;5135239;27;20067;-66
2022/04/17 06:22:54;;;;;;;4.38;2.50;;;;;;;12.00;39.50;102821.31;5139356;27;20069;-63
2022/04/17 06:25:23;;;;;;;3.97;2.25;;;;;;;12.01;39.50;102822.97;5138642;27;20119;-63
2022/04/17 06:27:51;;;;;;;4.63;2.50;;;;;;;12.04;39.77;102822.63;5147254;27;20047;-64
2022/04/17 06:30:22;;;;;;;4.82;2.95;;;;;;;12.06;39.56;102819.75;5142547;27;20053;-62
2022/04/17 06:32:50;;;;;;;5.10;2.65;;;;;;;12.08;39.50;102824.94;5141591;27;20180;-62
2022/04/17 06:35:18;;;;;;;4.50;2.80;;;;;;;12.08;39.58;102816.88;5143137;27;20093;-62
2022/04/17 06:37:47;;;;;;;5.20;2.58;;;;;;;12.09;39.71;102822.06;5141091;27;20107;-61
2022/04/17 06:40:19;;;;;;;5.25;2.20;;;;;;;12.09;39.92;102819.38;5135139;27;20381;-61
2022/04/17 06:42:49;;;;;;;4.97;2.85;;;;;;;12.11;39.95;102813.78;5135484;27;20127;-62
2022/04/17 06:45:18;;;;;;;4.80;2.70;;;;;;;12.12;40.20;102812.78;5138164;27;20082;-63
2022/04/17 06:47:46;;;;;;;3.28;2.22;;;;;;;12.14;40.13;102813.41;5142723;27;20140;-62
2022/04/17 06:50:16;;;;;;;3.72;2.22;;;;;;;12.16;40.04;102819.44;5137858;27;20071;-62
2022/04/17 06:52:43;;;;;;;5.68;2.78;;;;;;;12.20;39.96;102810.81;5139838;27;20074;-61
2022/04/17 06:55:12;;;;;;;4.32;2.75;;;;;;;12.22;40.06;102808.75;5137123;27;20079;-65
2022/04/17 06:57:45;;;;;;;5.78;3.05;;;;;;;12.36;40.33;102816.03;5139764;27;20210;-62
2022/04/17 07:00:17;;;;;;;5.38;2.63;;;;;;;12.42;40.22;102817.13;5142316;27;20086;-61
2022/04/17 07:02:45;;;;;;;4.13;2.40;;;;;;;12.45;40.31;102800.59;5126983;27;20051;-62
2022/04/17 07:05:14;;;;;;;5.25;2.17;;;;;;;12.50;40.18;102808.13;5140613;27;20051;-61
2022/04/17 07:07:42;;;;;;;3.53;2.20;;;;;;;12.51;40.03;102801.69;5139966;27;20086;-61
2022/04/17 07:10:11;;;;;;;5.57;2.55;;;;;;;12.52;40.12;102795.28;5134235;27;20136;-62
2022/04/17 07:12:39;;;;;;;4.82;2.50;;;;;;;12.52;39.92;102790.72;5141300;27;20090;-62
2022/04/17 07:15:11;;;;;;;2.20;1.80;;;;;;;12.54;40.17;102790.53;5138221;27;20043;-62
2022/04/17 07:17:41;;;;;;;5.90;2.13;;;;;;;12.54;40.17;102788.69;5141139;27;20055;-63
2022/04/17 07:20:10;;;;;;;4.50;2.53;;;;;;;12.57;40.21;102787.47;5137520;27;20106;-64
2022/04/17 07:22:39;;;;;;;4.57;2.13;;;;;;;12.56;40.36;102800.13;5141659;27;20172;-62
2022/04/17 07:25:08;;;;;;;4.70;2.20;;;;;;;12.57;40.38;102790.16;5148516;27;20598;-63
2022/04/17 07:27:38;;;;;;;5.82;2.03;;;;;;;12.56;40.23;102789.31;5146082;27;20074;-63
2022/04/17 07:30:10;;;;;;;3.13;2.05;;;;;;;12.60;40.20;102793.31;5132875;27;20111;-63
2022/04/17 07:32:40;;;;;;;3.05;1.83;;;;;;;12.70;40.92;102783.06;5138274;27;20107;-64
2022/04/17 07:35:09;;;;;;;4.30;2.10;;;;;;;12.76;40.57;102786.03;5140509;27;20051;-64
2022/04/17 07:37:37;;;;;;;5.30;1.95;;;;;;;12.75;40.26;102774.41;5141268;27;20070;-64
2022/04/17 07:40:15;;;;;;;4.85;2.03;;;;;;;12.76;40.37;102778.78;5139162;27;20089;-63
2022/04/17 07:42:44;;;;;;;4.35;2.25;;;;;;;12.75;40.14;102773.59;5131772;27;20097;-63
2022/04/17 07:45:13;;;;;;;4.35;2.17;;;;;;;12.78;40.57;102775.91;5137338;27;20134;-64
2022/04/17 07:47:43;;;;;;;5.63;2.67;;;;;;;12.80;40.41;102773.84;5140184;27;20134;-62
2022/04/17 07:50:14;;;;;;;4.22;1.95;;;;;;;12.82;40.30;102771.81;5140048;27;20039;-65
2022/04/17 07:52:42;;;;;;;5.50;1.83;;;;;;;12.83;40.97;102765.38;5135038;27;20043;-62
2022/04/17 07:55:12;;;;;;;4.72;2.13;;;;;;;12.82;41.21;102769.94;5135519;27;20082;-63
2022/04/17 07:58:01;;;;;;;12.77;3.00;;;;;;;12.93;42.39;102769.44;5139304;27;20080;-64
2022/04/17 08:00:32;;;;;;;6.07;2.20;;;;;;;12.97;41.75;102759.09;5139648;27;20057;-64
2022/04/17 08:03:35;;;;;;;7.63;2.38;;;;;;;13.00;41.68;102758.72;5141410;27;20047;-64
2022/04/17 08:06:05;;;;;;;7.22;2.22;;;;;;;13.03;41.51;102761.03;5135670;27;20054;-64
2022/04/17 08:08:34;;;;;;;8.02;2.08;;;;;;;13.01;41.39;102755.84;5136968;27;20063;-64
2022/04/17 08:11:01;;;;;;;7.45;1.77;;;;;;;13.02;42.09;102757.50;5135785;27;20099;-63
2022/04/17 08:13:29;;;;;;;6.20;2.17;;;;;;;13.06;41.96;102752.56;5140044;27;20082;-63
2022/04/17 08:15:57;;;;;;;7.78;2.00;;;;;;;13.03;42.07;102761.03;5133501;27;20047;-62
2022/04/17 08:18:26;;;;;;;6.20;2.10;;;;;;;13.01;42.35;102757.69;5139238;27;20103;-63
2022/04/17 08:20:54;;;;;;;5.93;1.92;;;;;;;13.00;41.92;102758.72;5140317;27;20135;-63
2022/04/17 08:23:21;;;;;;;4.38;2.15;;;;;;;12.98;42.10;102760.78;5139677;27;20129;-62
2022/04/17 08:25:50;;;;;;;3.30;1.58;;;;;;;12.99;42.03;102763.28;5134420;27;20079;-63
2022/04/17 08:28:18;;;;;;;2.13;1.38;;;;;;;12.95;42.19;102751.19;5139372;27;20074;-63
2022/04/17 08:30:46;;;;;;;7.18;2.08;;;;;;;13.00;42.27;102759.56;5132940;27;20086;-63
2022/04/17 08:33:14;;;;;;;3.13;1.77;;;;;;;13.00;42.27;102748.75;5130217;27;20091;-65
2022/04/17 08:35:44;;;;;;;2.97;1.80;;;;;;;13.00;42.11;102754.16;5138682;27;20051;-63
2022/04/17 08:38:14;;;;;;;6.20;1.80;;;;;;;13.03;41.97;102736.75;5138909;27;20047;-66
2022/04/17 08:40:42;;;;;;;7.80;2.13;;;;;;;13.03;42.29;102737.59;5138152;27;20071;-63
2022/04/17 08:43:10;;;;;;;6.20;2.10;;;;;;;13.07;42.71;102745.31;5138347;27;20085;-63
2022/04/17 08:45:38;;;;;;;3.90;1.92;;;;;;;13.08;42.47;102744.28;5139388;27;20070;-63
2022/04/17 08:48:06;;;;;;;4.95;2.10;;;;;;;13.10;42.48;102740.34;5126082;27;20085;-63
2022/04/17 08:50:40;;;;;;;5.10;1.67;;;;;;;13.15;42.52;102742.47;5130282;27;20578;-63
2022/04/17 08:53:14;;;;;;;2.83;1.60;;;;;;;13.15;42.33;102740.63;5139658;27;20071;-63
2022/04/17 08:55:47;;;;;;;2.17;1.45;;;;;;;13.17;42.50;102737.75;5138490;27;20099;-66
2022/04/17 08:58:15;;;;;;;3.10;1.63;;;;;;;13.18;42.41;102736.72;5129821;27;20067;-65
2022/04/17 09:00:43;;;;;;;2.90;1.50;;;;;;;13.21;42.51;102742.56;5148111;27;20159;-65
2022/04/17 09:03:12;;;;;;;3.67;1.50;;;;;;;13.24;42.54;102735.94;5136776;28;20563;-64
2022/04/17 09:05:40;;;;;;;4.25;1.80;;;;;;;13.27;43.16;102733.69;5135176;28;20047;-65
2022/04/17 09:08:18;;;;;;;4.20;2.28;;;;;;;13.29;42.60;102731.63;5139740;28;20074;-64
2022/04/17 09:10:56;;;;;;;2.33;1.77;;;;;;;13.31;42.87;102726.03;5139917;27;20074;-64
2022/04/17 09:13:31;;;;;;;3.30;1.85;;;;;;;13.35;44.39;102727.31;5135481;28;20139;-63
2022/04/17 09:15:59;;;;;;;5.85;2.15;;;;;;;13.47;47.65;102725.78;5139564;28;20050;-64
2022/04/17 09:18:31;;;;;;;6.63;1.83;;;;;;;13.55;47.49;102724.78;5130573;28;20039;-65
2022/04/17 09:21:01;;;;;;;4.28;1.83;;;;;;;13.60;48.47;102723.19;5130671;27;20054;-63
2022/04/17 09:23:38;;;;;;;4.57;1.75;;;;;;;13.71;48.92;102719.09;5141458;27;20043;-66
2022/04/17 09:26:07;;;;;;;5.28;2.20;;;;;;;13.74;49.29;102717.88;5126976;28;20086;-66
2022/04/17 09:28:36;;;;;;;3.03;1.75;;;;;;;13.83;48.08;102717.53;5140000;28;20424;-64
2022/04/17 09:31:10;;;;;;;3.33;1.85;;;;;;;13.83;48.28;102695.06;5146274;27;20039;-65
2022/04/17 09:33:41;;;;;;;3.88;1.85;;;;;;;13.95;47.46;102710.50;5142758;28;20079;-65
2022/04/17 09:36:09;;;;;;;4.07;1.85;;;;;;;13.94;46.70;102708.84;5143933;27;20074;-64
2022/04/17 09:38:43;;;;;;;6.85;2.65;;;;;;;13.95;45.58;102709.66;5146142;27;20074;-64
2022/04/17 09:41:13;;;;;;;2.95;1.67;;;;;;;14.04;45.77;102702.22;5145837;27;20481;-66
2022/04/17 09:43:42;;;;;;;10.52;1.75;;;;;;;14.04;47.00;102694.13;5138454;27;20050;-63
2022/04/17 09:46:11;;;;;;;4.43;1.98;;;;;;;14.03;46.15;102696.00;5156684;27;20074;-65
2022/04/17 09:48:40;;;;;;;4.38;1.73;;;;;;;14.08;46.72;102692.69;5140478;27;20046;-63
2022/04/17 09:51:22;;;;;;;5.25;1.90;;;;;;;14.16;46.53;102692.53;5143864;27;20050;-66
2022/04/17 09:54:01;;;;;;;4.00;1.70;;;;;;;14.13;46.13;102684.81;5138165;27;20097;-67
2022/04/17 09:56:33;;;;;;;2.92;1.35;;;;;;;14.21;46.40;102680.06;5145421;27;20051;-67
2022/04/17 09:59:16;;;;;;;2.75;1.70;;;;;;;14.23;46.69;102667.19;5142176;27;20047;-66
2022/04/17 10:01:46;;;;;;;3.20;1.60;;;;;;;14.21;46.18;102671.13;5145796;27;20075;-66
2022/04/17 10:04:16;;;;;;;5.35;1.90;;;;;;;14.23;46.37;102663.66;5145428;27;20051;-67
2022/04/17 10:06:43;;;;;;;4.50;1.63;;;;;;;14.21;45.98;102652.19;5146815;27;20047;-66
2022/04/17 10:09:13;;;;;;;4.43;1.92;;;;;;;14.30;46.76;102642.88;5143076;27;20077;-65
2022/04/17 10:11:41;;;;;;;4.78;1.50;;;;;;;14.36;46.21;102652.88;5149842;27;20043;-66
2022/04/17 10:14:09;;;;;;;2.60;1.40;;;;;;;14.37;46.01;102648.31;5153868;27;20063;-67
2022/04/17 10:16:40;;;;;;;4.35;1.50;;;;;;;14.37;45.66;102643.72;5151144;27;20066;-66
2022/04/17 10:19:12;;;;;;;4.32;1.65;;;;;;;14.39;45.94;102636.25;5144681;27;20089;-67
2022/04/17 10:21:41;;;;;;;1.98;1.38;;;;;;;14.40;45.99;102629.78;5145536;27;20066;-66
2022/04/17 10:24:13;;;;;;;2.70;1.17;;;;;;;14.43;45.78;102626.72;5145111;27;20111;-67
2022/04/17 10:26:45;;;;;;;4.30;1.38;;;;;;;14.45;45.53;102623.81;5153650;27;20050;-66
2022/04/17 10:29:20;;;;;;;1.90;1.20;;;;;;;14.48;46.17;102620.69;5150700;27;20043;-66
2022/04/17 10:31:59;;;;;;;4.10;1.35;;;;;;;14.52;45.58;102622.78;5141862;27;20086;-67
2022/04/17 10:34:53;;;;;;;3.15;1.33;;;;;;;14.54;45.16;102612.59;5147927;27;20059;-66
2022/04/17 10:37:51;;;;;;;2.70;1.50;;;;;;;14.56;44.44;102609.69;5136642;27;20071;-67
2022/04/17 10:40:20;;;;;;;3.65;1.40;;;;;;;14.61;45.42;102608.03;5125089;27;20070;-66
2022/04/17 10:42:55;;;;;;;1.65;1.10;;;;;;;14.68;44.88;102594.50;5150485;27;20035;-66
2022/04/17 10:45:25;;;;;;;2.42;1.20;;;;;;;14.78;45.13;102580.56;5134258;27;20488;-67
2022/04/17 10:48:07;;;;;;;3.00;1.40;;;;;;;14.86;45.28;102586.59;5152596;27;20042;-68
2022/04/17 10:50:41;;;;;;;3.33;1.25;;;;;;;14.94;45.83;102580.16;5133085;27;20055;-65
2022/04/17 10:53:26;;;;;;;1.75;1.13;;;;;;;14.97;45.63;102572.44;5147191;27;20109;-64
2022/04/17 10:56:05;;;;;;;5.80;1.45;;;;;;;15.07;45.79;102573.91;5143696;27;20082;-65
2022/04/17 10:58:40;;;;;;;3.65;1.60;;;;;;;15.14;44.92;102566.59;5143443;27;20483;-65
2022/04/17 11:01:09;;;;;;;3.47;1.88;;;;;;;15.23;45.03;102573.47;5147289;27;20066;-65
2022/04/17 11:03:37;;;;;;;7.00;2.35;;;;;;;15.35;45.20;102560.94;5154335;27;20058;-63
2022/04/17 11:06:29;;;;;;;3.90;1.50;;;;;;;15.41;44.91;102554.69;5133755;27;20535;-61
2022/04/17 11:09:05;;;;;;;4.40;1.80;;;;;;;15.55;43.38;102550.88;5129188;27;20078;-63
2022/04/17 11:11:38;;;;;;;5.18;1.27;;;;;;;15.52;43.71;102548.59;5135734;27;20082;-62
2022/04/17 11:14:08;;;;;;;3.63;1.65;;;;;;;15.61;43.90;102543.78;5148930;27;20086;-64
2022/04/17 11:16:58;;;;;;;3.38;1.20;;;;;;;15.60;44.25;102551.06;5140765;27;20066;-64
2022/04/17 11:19:27;;;;;;;4.93;1.80;;;;;;;15.69;43.69;102545.44;5137684;27;20047;-64
2022/04/17 11:21:58;;;;;;;8.68;2.60;;;;;;;15.74;43.71;102543.72;5142911;27;20051;-63
2022/04/17 11:24:27;;;;;;;7.45;2.75;;;;;;;15.75;44.46;102534.56;5148855;27;20091;-64
2022/04/17 11:27:10;;;;;;;8.20;2.35;;;;;;;15.82;44.05;102542.66;5142702;27;20072;-64
2022/04/17 11:29:40;;;;;;;4.55;2.15;;;;;;;16.10;43.63;102537.72;5145776;27;20066;-64
2022/04/17 11:32:49;;;;;;;8.80;1.80;;;;;;;16.17;43.66;102529.53;5151849;27;20051;-63
2022/04/17 11:35:23;;;;;;;5.20;1.77;;;;;;;16.15;43.72;102524.34;5130731;27;20051;-63
2022/04/17 11:38:03;;;;;;;3.83;1.60;;;;;;;16.23;42.95;102515.09;5143532;27;20043;-63
2022/04/17 11:40:35;;;;;;;7.47;2.45;;;;;;;16.15;44.35;102516.19;5142864;27;20050;-61
2022/04/17 11:43:10;;;;;;;17.92;5.90;;;;;;;16.26;43.99;102515.50;5139795;27;20066;-62
2022/04/17 11:45:40;;;;;;;19.20;5.55;;;;;;;16.33;43.66;102504.59;5143194;27;20043;-61
2022/04/17 11:48:10;;;;;;;8.30;3.25;;;;;;;16.30;43.49;102507.75;5140243;27;20078;-62
2022/04/17 11:50:39;;;;;;;7.95;2.42;;;;;;;16.36;43.15;102489.75;5144697;27;20051;-62
2022/04/17 11:53:11;;;;;;;10.98;2.00;;;;;;;16.51;43.50;102496.53;5134856;27;20488;-62